Time;durP1;ratioP1;P1;durP2;ratioP2;P2;SDS_P1;SDS_P2;PMS_P1;PMS_P2;Temp;Humidity;BMP_temperature;BMP_pressure;BME280_temperature;BME280_humidity;BME280_pressure;Samples;Min_cycle;Max_cycle;Signal;HPM_P1;HPM_P2
2023/01/09 00:04:51;;;;;;;;;;;6.00;99.90;;;5.10;100.00;94055.00;10417167;28;2036;-75
2023/01/09 00:09:54;;;;;;;;;;;6.20;99.90;;;5.11;100.00;94072.56;10416182;28;2095;-76
2023/01/09 00:14:56;;;;;;;;;;;6.10;99.90;;;5.20;100.00;94096.72;10423166;28;2072;-75
2023/01/09 00:19:59;;;;;;;;;;;6.10;99.90;;;5.20;100.00;94102.03;10416143;28;2102;-74
2023/01/09 00:25:02;;;;;;;;;;;6.20;99.90;;;5.19;100.00;94092.47;10418384;28;1999;-73
2023/01/09 00:30:05;;;;;;;;;;;6.20;99.90;;;5.25;100.00;94081.47;10415471;28;1996;-75
2023/01/09 00:35:07;;;;;;;;;;;6.20;99.90;;;5.20;100.00;94086.06;10413353;28;2067;-74
2023/01/09 00:40:10;;;;;;;;;;;6.20;99.90;;;5.15;100.00;94090.38;10416930;28;1985;-74
2023/01/09 00:45:13;;;;;;;;;;;6.20;99.90;;;5.08;100.00;94100.53;10411826;28;1999;-73
2023/01/09 00:50:16;;;;;;;;;;;6.10;99.90;;;5.07;100.00;94092.81;10412368;28;2135;-73
2023/01/09 00:55:18;;;;;;;;;;;6.00;99.90;;;4.96;100.00;94099.31;10411132;28;2110;-76
2023/01/09 01:00:21;;;;;;;;;;;6.10;99.90;;;4.93;100.00;94102.53;10412910;28;2057;-74
2023/01/09 01:10:45;;;;;;;;;;;6.00;99.90;;;4.87;100.00;94073.28;10411161;28;2042;-73
2023/01/09 01:15:47;;;;;;;;;;;5.90;99.90;;;4.87;100.00;94075.94;10412640;28;2027;-75
2023/01/09 01:20:50;;;;;;;;;;;5.90;99.90;;;4.91;100.00;94086.84;10409053;28;2026;-74
2023/01/09 01:25:53;;;;;;;;;;;5.90;99.90;;;5.02;100.00;94068.91;10409151;28;2016;-74
2023/01/09 01:30:56;;;;;;;;;;;6.00;99.90;;;4.97;100.00;94060.97;10408940;28;1976;-74
2023/01/09 01:35:59;;;;;;;;;;;6.00;99.90;;;5.09;100.00;94053.38;10407346;28;2004;-74
2023/01/09 01:41:02;;;;;;;;;;;6.00;99.90;;;5.11;100.00;94062.69;10410550;28;2075;-74
2023/01/09 01:46:04;;;;;;;;;;;6.10;99.90;;;5.08;100.00;94075.75;10413606;28;1983;-74
2023/01/09 01:51:08;;;;;;;;;;;6.10;99.90;;;5.12;100.00;94064.28;10409086;28;2037;-74
2023/01/09 01:56:11;;;;;;;;;;;6.10;99.90;;;5.25;100.00;94067.38;10406912;28;2147;-75
2023/01/09 02:01:14;;;;;;;;;;;6.20;99.90;;;5.21;100.00;94063.66;10405006;28;2069;-76
2023/01/09 02:06:17;;;;;;;;;;;6.20;99.90;;;5.12;100.00;94066.16;10421846;28;1992;-75
2023/01/09 02:11:20;;;;;;;;;;;6.20;99.90;;;5.05;100.00;94066.47;10407292;28;2107;-74
2023/01/09 02:16:23;;;;;;;;;;;6.10;99.90;;;5.05;100.00;94073.69;10407963;28;2079;-73
2023/01/09 02:21:26;;;;;;;;;;;6.10;99.90;;;5.08;100.00;94070.44;10407056;28;2086;-74
2023/01/09 02:26:29;;;;;;;;;;;6.10;99.90;;;5.10;100.00;94068.31;10406917;28;2281;-74
2023/01/09 02:31:31;;;;;;;;;;;6.20;99.90;;;5.15;100.00;94078.91;10407621;28;2051;-76
2023/01/09 02:36:34;;;;;;;;;;;6.20;99.90;;;5.17;100.00;94063.44;10406265;28;2030;-74
2023/01/09 02:41:37;;;;;;;;;;;6.20;99.90;;;5.20;100.00;94076.19;10407259;28;2104;-75
2023/01/09 02:46:40;;;;;;;;;;;6.20;99.90;;;5.19;100.00;94077.28;10408452;28;2051;-74
2023/01/09 02:51:42;;;;;;;;;;;6.20;99.90;;;5.11;100.00;94077.88;10406022;28;1967;-74
2023/01/09 02:56:45;;;;;;;;;;;6.20;99.90;;;5.08;100.00;94054.47;10407227;28;2030;-75
2023/01/09 03:01:50;;;;;;;;;;;6.10;99.90;;;4.98;100.00;94055.38;10406798;28;2053;-74
2023/01/09 03:06:53;;;;;;;;;;;6.10;99.90;;;4.96;100.00;94060.16;10405669;28;2041;-74
2023/01/09 03:11:56;;;;;;;;;;;6.10;99.90;;;4.93;100.00;94071.38;10409174;28;2023;-75
2023/01/09 03:16:59;;;;;;;;;;;6.00;99.90;;;4.97;100.00;94083.06;10411883;28;2039;-75
2023/01/09 03:22:01;;;;;;;;;;;6.00;99.90;;;4.96;100.00;94080.66;10404745;28;1991;-74
2023/01/09 03:27:04;;;;;;;;;;;6.00;99.90;;;4.96;100.00;94073.47;10408430;28;2011;-75
2023/01/09 03:32:07;;;;;;;;;;;6.00;99.90;;;4.87;100.00;94075.16;10414827;28;2098;-74
2023/01/09 03:37:09;;;;;;;;;;;6.00;99.90;;;4.82;100.00;94075.97;10415019;28;2222;-74
2023/01/09 03:42:12;;;;;;;;;;;5.90;99.90;;;4.83;100.00;94074.91;10420008;28;1991;-74
2023/01/09 03:47:15;;;;;;;;;;;5.90;99.90;;;4.78;100.00;94069.66;10415528;28;2048;-75
2023/01/09 03:52:17;;;;;;;;;;;5.90;99.90;;;4.74;100.00;94068.59;10416582;28;1971;-73
2023/01/09 03:57:20;;;;;;;;;;;5.80;99.90;;;4.71;100.00;94074.50;10416895;28;2044;-75
2023/01/09 04:02:23;;;;;;;;;;;5.90;99.90;;;4.68;100.00;94080.34;10416564;28;2041;-73
2023/01/09 04:07:26;;;;;;;;;;;5.80;99.90;;;4.68;100.00;94077.69;10415642;28;2108;-75
2023/01/09 04:12:29;;;;;;;;;;;5.80;99.90;;;4.82;100.00;94081.31;10416665;28;2037;-74
2023/01/09 04:17:31;;;;;;;;;;;5.80;99.90;;;4.95;100.00;94081.75;10412593;28;2109;-76
2023/01/09 04:22:34;;;;;;;;;;;6.00;99.90;;;5.01;100.00;94093.94;10411979;28;2135;-74
2023/01/09 04:27:37;;;;;;;;;;;6.10;99.90;;;5.12;100.00;94096.25;10412541;28;2028;-74
2023/01/09 04:32:39;;;;;;;;;;;6.10;99.90;;;5.22;100.00;94114.03;10412856;28;2000;-74
2023/01/09 04:37:42;;;;;;;;;;;6.20;99.90;;;5.32;100.00;94129.09;10417614;28;2055;-74
2023/01/09 04:42:45;;;;;;;;;;;6.30;99.90;;;5.37;100.00;94124.53;10411721;28;2150;-74
2023/01/09 04:47:48;;;;;;;;;;;6.40;99.90;;;5.47;100.00;94157.47;10415094;28;2096;-75
2023/01/09 04:52:51;;;;;;;;;;;6.50;99.90;;;5.48;100.00;94156.41;10415294;28;2090;-74
2023/01/09 04:57:53;;;;;;;;;;;6.60;99.90;;;5.63;100.00;94153.59;10412019;28;2156;-74
2023/01/09 05:02:56;;;;;;;;;;;6.60;99.90;;;5.70;100.00;94159.38;10410391;28;2069;-75
2023/01/09 05:07:59;;;;;;;;;;;6.70;99.90;;;5.77;100.00;94169.72;10425672;28;1987;-74
2023/01/09 05:13:02;;;;;;;;;;;6.80;99.90;;;5.90;100.00;94174.38;10414541;28;2104;-75
2023/01/09 05:18:04;;;;;;;;;;;6.90;99.90;;;6.05;100.00;94186.81;10410560;28;2075;-75
2023/01/09 05:23:07;;;;;;;;;;;7.00;99.90;;;6.19;100.00;94201.06;10408887;28;2129;-74
2023/01/09 05:28:10;;;;;;;;;;;7.10;99.90;;;6.18;100.00;94216.25;10412595;28;1996;-73
2023/01/09 05:33:13;;;;;;;;;;;7.20;99.90;;;6.20;100.00;94226.66;10410176;28;2028;-74
2023/01/09 05:38:15;;;;;;;;;;;7.20;99.90;;;6.22;100.00;94243.94;10425156;28;1939;-74
2023/01/09 05:43:18;;;;;;;;;;;7.30;99.90;;;6.22;100.00;94243.94;10441573;28;1745;-74
2023/01/09 05:48:21;;;;;;;;;;;7.20;99.90;;;6.17;100.00;94253.88;10444211;28;1804;-74
2023/01/09 05:53:24;;;;;;;;;;;7.20;99.90;;;6.18;100.00;94260.84;10425781;28;2328;-75
2023/01/09 05:58:27;;;;;;;;;;;7.30;99.90;;;6.09;100.00;94263.31;10409107;28;2105;-76
2023/01/09 06:03:30;;;;;;;;;;;7.10;99.90;;;6.04;100.00;94281.22;10406851;28;1985;-77
2023/01/09 06:08:32;;;;;;;;;;;7.10;99.90;;;6.06;100.00;94266.53;10406961;28;2102;-77
2023/01/09 06:13:35;;;;;;;;;;;7.20;99.90;;;6.03;100.00;94283.09;10414954;28;1972;-78
2023/01/09 06:18:38;;;;;;;;;;;7.10;99.90;;;6.00;100.00;94288.22;10406240;28;2088;-77
2023/01/09 06:23:40;;;;;;;;;;;7.00;99.90;;;5.99;100.00;94295.41;10406589;28;2048;-78
2023/01/09 06:28:43;;;;;;;;;;;7.00;99.90;;;5.97;100.00;94301.00;10406426;28;2189;-75
2023/01/09 06:33:46;;;;;;;;;;;7.00;99.90;;;5.90;100.00;94321.84;10405438;28;2221;-77
2023/01/09 06:38:49;;;;;;;;;;;7.00;99.90;;;5.94;100.00;94316.78;10412944;28;2027;-77
2023/01/09 06:43:52;;;;;;;;;;;7.00;99.90;;;5.93;100.00;94339.22;10411134;28;1969;-76
2023/01/09 06:48:55;;;;;;;;;;;7.00;99.90;;;5.89;100.00;94344.25;10411038;28;2235;-76
2023/01/09 06:53:58;;;;;;;;;;;7.30;99.90;;;5.77;100.00;94348.34;10407862;28;2073;-77
2023/01/09 06:59:01;;;;;;;;;;;6.90;99.90;;;5.77;100.00;94343.03;10407558;28;2013;-77
2023/01/09 07:04:05;;;;;;;;;;;6.80;99.90;;;5.70;100.00;94356.69;10408209;28;2009;-78
2023/01/09 07:09:12;;;;;;;;;;;7.00;99.90;;;5.66;100.00;94376.94;10407542;28;2051;-77
2023/01/09 07:14:15;;;;;;;;;;;6.70;99.90;;;5.62;100.00;94389.25;10414937;28;2000;-76
2023/01/09 07:19:17;;;;;;;;;;;6.70;99.90;;;5.62;100.00;94391.94;10408172;28;2032;-77
2023/01/09 07:24:20;;;;;;;;;;;6.70;99.90;;;5.61;100.00;94382.34;10405549;28;2106;-77
2023/01/09 07:29:23;;;;;;;;;;;6.60;99.90;;;5.66;100.00;94404.44;10406608;28;2026;-77
2023/01/09 07:34:25;;;;;;;;;;;6.60;99.90;;;5.68;100.00;94422.81;10435366;28;2073;-77
2023/01/09 07:39:29;;;;;;;;;;;6.70;99.90;;;5.66;100.00;94438.28;10407154;28;2131;-74
2023/01/09 07:44:31;;;;;;;;;;;6.70;99.90;;;5.50;100.00;94458.09;10404680;28;2113;-74
2023/01/09 07:49:34;;;;;;;;;;;6.60;99.90;;;5.27;100.00;94481.63;10408194;28;2175;-76
2023/01/09 07:54:37;;;;;;;;;;;6.30;99.90;;;5.05;100.00;94495.28;10406366;28;2101;-75
2023/01/09 07:59:42;;;;;;;;;;;6.10;99.90;;;4.78;100.00;94498.25;10407345;28;2050;-75
2023/01/09 08:04:44;;;;;;;;;;;5.90;99.90;;;4.55;100.00;94501.44;10405477;28;2008;-75
2023/01/09 08:09:47;;;;;;;;;;;5.70;99.90;;;4.52;100.00;94520.63;10408005;28;2046;-76
2023/01/09 08:14:50;;;;;;;;;;;5.50;99.90;;;4.46;100.00;94521.69;10415968;28;2003;-74
2023/01/09 08:19:53;;;;;;;;;;;5.50;99.90;;;4.52;100.00;94528.63;10425376;28;2081;-73
2023/01/09 08:24:56;;;;;;;;;;;5.50;99.90;;;4.53;100.00;94523.00;10411105;28;2136;-78
2023/01/09 08:29:59;;;;;;;;;;;5.50;99.90;;;4.71;100.00;94532.34;10412452;28;2106;-75
2023/01/09 08:35:02;;;;;;;;;;;5.60;99.90;;;4.78;100.00;94554.16;10412065;28;2039;-77
2023/01/09 08:40:04;;;;;;;;;;;5.70;99.90;;;4.85;100.00;94556.56;10416584;28;1971;-75
2023/01/09 08:50:28;;;;;;;;;;;5.90;99.90;;;5.34;100.00;94551.44;10414797;28;2044;-76
2023/01/09 08:55:30;;;;;;;;;;;6.10;99.90;;;5.49;100.00;94547.13;10411476;28;2015;-76
2023/01/09 09:00:33;;;;;;;;;;;6.30;99.90;;;5.57;100.00;94541.22;10410940;28;1981;-78
2023/01/09 09:05:36;;;;;;;;;;;5.60;99.90;;;5.51;100.00;94539.66;10410412;28;2050;-76
2023/01/09 09:10:39;;;;;;;;;;;6.40;99.90;;;5.39;100.00;94545.28;10412454;28;2210;-76
2023/01/09 09:15:41;;;;;;;;;;;6.40;99.90;;;5.51;100.00;94550.31;10416838;28;2026;-76
2023/01/09 09:20:44;;;;;;;;;;;6.40;99.90;;;5.60;100.00;94538.81;10413738;28;2014;-76
2023/01/09 09:25:47;;;;;;;;;;;6.50;99.90;;;5.73;100.00;94532.13;10410453;28;1992;-76
2023/01/09 09:30:52;;;;;;;;;;;6.70;99.90;;;5.61;100.00;94551.09;10411506;28;2228;-77
2023/01/09 09:35:55;;;;;;;;;;;6.60;99.90;;;5.58;100.00;94554.28;10413995;28;2034;-75
2023/01/09 09:40:58;;;;;;;;;;;6.60;99.90;;;5.61;100.00;94560.94;10415919;28;2043;-76
2023/01/09 09:46:01;;;;;;;;;;;6.60;99.90;;;5.71;100.00;94566.22;10409586;28;2060;-76
2023/01/09 09:51:04;;;;;;;;;;;6.70;99.90;;;6.07;100.00;94555.44;10409497;28;1972;-77
2023/01/09 09:56:07;;;;;;;;;;;7.00;99.90;;;6.12;100.00;94558.09;10408130;28;2107;-76
2023/01/09 10:01:10;;;;;;;;;;;7.00;99.90;;;6.04;100.00;94555.97;10410838;28;2003;-74
2023/01/09 10:06:12;;;;;;;;;;;7.10;99.90;;;5.96;100.00;94550.16;10409088;28;2011;-76
2023/01/09 10:11:16;;;;;;;;;;;7.00;99.90;;;5.96;100.00;94546.69;10413664;28;1976;-77
2023/01/09 10:16:20;;;;;;;;;;;6.90;99.90;;;5.99;100.00;94532.81;10409386;28;2068;-74
2023/01/09 10:21:25;;;;;;;;;;;7.00;99.90;;;6.27;100.00;94525.97;10407901;28;2037;-74
2023/01/09 10:26:28;;;;;;;;;;;7.10;99.90;;;6.34;100.00;94537.13;10405002;28;2114;-75
2023/01/09 10:31:32;;;;;;;;;;;7.30;99.90;;;6.39;100.00;94529.09;10406030;28;1988;-75
2023/01/09 10:36:35;;;;;;;;;;;7.30;99.90;;;6.34;100.00;94521.13;10406781;28;2025;-75
2023/01/09 10:41:38;;;;;;;;;;;7.30;99.90;;;6.29;100.00;94534.50;10407751;28;2152;-73
2023/01/09 10:46:41;;;;;;;;;;;7.30;99.90;;;6.48;100.00;94543.44;10404377;28;1968;-76
2023/01/09 10:51:44;;;;;;;;;;;7.30;99.90;;;6.54;100.00;94530.06;10408110;28;1992;-75
2023/01/09 10:56:46;;;;;;;;;;;7.40;99.90;;;6.43;100.00;94530.16;10408144;28;1980;-73
2023/01/09 11:01:49;;;;;;;;;;;7.40;99.90;;;6.53;100.00;94523.13;10407445;28;1984;-75
2023/01/09 11:06:52;;;;;;;;;;;7.50;99.90;;;6.64;100.00;94520.13;10405488;28;2087;-75
2023/01/09 11:11:54;;;;;;;;;;;7.50;99.90;;;6.64;100.00;94519.31;10412591;28;1981;-77
2023/01/09 11:16:57;;;;;;;;;;;7.60;99.90;;;6.62;100.00;94522.28;10410132;28;2033;-77
2023/01/09 11:22:00;;;;;;;;;;;7.60;99.90;;;6.77;100.00;94524.03;10406524;28;2094;-76
2023/01/09 11:27:03;;;;;;;;;;;7.60;99.90;;;6.68;100.00;94520.34;10405282;28;2170;-76
2023/01/09 11:32:06;;;;;;;;;;;7.60;99.90;;;6.71;100.00;94511.78;10406607;28;2144;-76
2023/01/09 11:37:08;;;;;;;;;;;7.60;99.90;;;6.76;100.00;94517.09;10406538;28;2174;-76
2023/01/09 11:42:11;;;;;;;;;;;7.70;99.90;;;6.82;100.00;94525.84;10409006;28;2036;-75
2023/01/09 11:47:14;;;;;;;;;;;7.80;99.90;;;6.86;100.00;94522.31;10409756;28;1989;-75
2023/01/09 11:52:16;;;;;;;;;;;7.90;99.90;;;6.94;100.00;94519.06;10413387;28;2066;-76
2023/01/09 11:57:19;;;;;;;;;;;7.90;99.90;;;7.04;100.00;94513.63;10414481;28;2016;-76
2023/01/09 12:02:22;;;;;;;;;;;7.90;99.90;;;7.13;100.00;94516.50;10412238;28;2025;-76
2023/01/09 12:07:25;;;;;;;;;;;8.00;99.90;;;7.25;100.00;94518.75;10410911;28;2092;-74
2023/01/09 12:12:28;;;;;;;;;;;8.10;99.90;;;7.14;100.00;94512.72;10417496;28;2448;-75
2023/01/09 12:17:30;;;;;;;;;;;8.20;99.90;;;7.26;100.00;94520.38;10416178;28;2004;-77
2023/01/09 12:22:33;;;;;;;;;;;8.20;99.90;;;7.41;100.00;94522.88;10410567;28;2058;-76
2023/01/09 12:27:36;;;;;;;;;;;8.30;99.90;;;7.27;100.00;94535.31;10412070;28;2112;-74
2023/01/09 12:32:39;;;;;;;;;;;8.30;99.90;;;7.20;100.00;94542.88;10411748;28;2092;-75
2023/01/09 12:37:42;;;;;;;;;;;8.20;99.90;;;7.26;100.00;94541.75;10409696;28;2068;-76
2023/01/09 12:42:45;;;;;;;;;;;8.20;99.90;;;7.28;100.00;94540.38;10413369;28;2018;-74
2023/01/09 12:47:48;;;;;;;;;;;8.30;99.90;;;7.28;100.00;94536.91;10414512;28;2267;-75
2023/01/09 12:52:51;;;;;;;;;;;8.30;99.90;;;7.22;100.00;94538.03;10411994;28;2035;-74
2023/01/09 12:57:53;;;;;;;;;;;8.20;99.90;;;7.18;100.00;94534.34;10412561;28;1989;-75
2023/01/09 13:02:57;;;;;;;;;;;8.20;99.90;;;7.23;100.00;94536.97;10441505;28;1996;-78
2023/01/09 13:08:13;;;;;;;;;;;8.20;99.90;;;7.31;100.00;94539.00;10411391;28;1980;-78
2023/01/09 13:13:16;;;;;;;;;;;8.20;99.90;;;7.22;100.00;94546.06;10410541;28;2099;-77
2023/01/09 13:18:19;;;;;;;;;;;8.20;99.90;;;7.20;100.00;94537.53;10419421;28;2007;-76
2023/01/09 13:23:22;;;;;;;;;;;8.20;99.90;;;7.19;100.00;94527.91;10410685;28;2040;-77
2023/01/09 13:28:25;;;;;;;;;;;8.10;99.90;;;7.17;100.00;94524.72;10409154;28;2008;-77
2023/01/09 13:33:28;;;;;;;;;;;8.20;99.90;;;7.05;100.00;94514.41;10412137;28;2114;-77
2023/01/09 13:38:31;;;;;;;;;;;8.10;99.90;;;6.97;100.00;94517.69;10412100;28;2169;-76
2023/01/09 13:43:34;;;;;;;;;;;8.00;99.90;;;6.85;100.00;94520.75;10413213;28;2292;-78
2023/01/09 13:48:37;;;;;;;;;;;8.00;99.90;;;6.88;100.00;94519.41;10410961;28;1985;-78
2023/01/09 13:53:42;;;;;;;;;;;7.90;99.90;;;6.73;100.00;94512.28;10408254;28;1960;-77
2023/01/09 13:58:44;;;;;;;;;;;7.80;99.90;;;6.74;100.00;94516.56;10410314;28;2079;-77
2023/01/09 14:03:47;;;;;;;;;;;7.80;99.90;;;6.82;100.00;94523.97;10408261;28;2096;-75
2023/01/09 14:08:50;;;;;;;;;;;7.80;99.90;;;6.91;100.00;94508.94;10408964;28;2044;-75
2023/01/09 14:13:53;;;;;;;;;;;7.80;99.90;;;6.75;100.00;94524.31;10407683;28;2048;-74
2023/01/09 14:18:56;;;;;;;;;;;7.80;99.90;;;6.69;100.00;94537.97;10410431;28;2083;-76
2023/01/09 14:23:59;;;;;;;;;;;7.80;99.90;;;6.65;100.00;94542.28;10410696;28;2134;-74
2023/01/09 14:29:07;;;;;;;;;;;7.70;99.90;;;6.59;100.00;94538.84;10407088;28;2015;-76
2023/01/09 14:34:09;;;;;;;;;;;7.70;99.90;;;6.59;100.00;94532.69;10406498;28;2012;-73
2023/01/09 14:39:32;;;;;;;;;;;7.70;99.90;;;6.57;100.00;94546.34;10406894;28;2049;-74
2023/01/09 14:44:34;;;;;;;;;;;7.60;99.90;;;6.53;100.00;94549.84;10410077;28;2047;-76
2023/01/09 14:49:37;;;;;;;;;;;7.60;99.90;;;6.43;100.00;94554.19;10408173;28;2107;-74
2023/01/09 14:54:40;;;;;;;;;;;7.60;99.90;;;6.47;100.00;94557.88;10406563;28;2158;-76
2023/01/09 14:59:43;;;;;;;;;;;7.50;99.90;;;6.58;100.00;94558.59;10406004;28;2009;-74
2023/01/09 15:04:46;;;;;;;;;;;7.60;99.90;;;6.49;100.00;94568.28;10407346;28;2138;-76
2023/01/09 15:09:49;;;;;;;;;;;7.60;99.90;;;6.48;100.00;94570.13;10412423;28;2050;-74
2023/01/09 15:14:51;;;;;;;;;;;7.60;99.90;;;6.43;100.00;94572.88;10412726;28;2104;-74
2023/01/09 15:19:54;;;;;;;;;;;7.50;99.90;;;6.37;100.00;94576.63;10405436;28;2395;-74
2023/01/09 15:24:57;;;;;;;;;;;7.50;99.90;;;5.97;100.00;94581.09;10410583;28;1996;-75
2023/01/09 15:30:00;;;;;;;;;;;7.30;99.90;;;5.69;100.00;94574.50;10414923;28;2361;-74
2023/01/09 15:35:03;;;;;;;;;;;7.00;99.90;;;5.55;100.00;94575.34;10412884;28;2095;-75
2023/01/09 15:40:06;;;;;;;;;;;6.80;99.90;;;5.39;100.00;94583.38;10415507;28;2230;-75
2023/01/09 15:45:09;;;;;;;;;;;6.60;99.90;;;5.49;100.00;94589.78;10417167;28;1980;-75
2023/01/09 15:50:12;;;;;;;;;;;6.60;99.90;;;5.70;100.00;94591.28;10415430;28;2032;-74
2023/01/09 15:55:14;;;;;;;;;;;6.70;99.90;;;5.77;100.00;94607.81;10411833;28;1992;-73
2023/01/09 16:00:17;;;;;;;;;;;6.80;99.90;;;5.88;100.00;94612.03;10418813;28;2102;-75
2023/01/09 16:05:20;;;;;;;;;;;6.90;99.90;;;5.80;100.00;94617.16;10412207;28;2052;-73
2023/01/09 16:10:23;;;;;;;;;;;6.90;99.90;;;5.78;100.00;94613.94;10414052;28;2083;-74
2023/01/09 16:15:26;;;;;;;;;;;6.80;99.90;;;5.69;100.00;94632.38;10419815;28;1983;-77
2023/01/09 16:20:29;;;;;;;;;;;6.80;99.90;;;5.73;100.00;94644.09;10414175;28;1996;-74
2023/01/09 16:25:33;;;;;;;;;;;6.90;99.90;;;5.63;100.00;94638.78;10410777;28;2044;-74
2023/01/09 16:30:38;;;;;;;;;;;6.70;99.90;;;5.67;100.00;94639.84;10412755;28;2078;-74
2023/01/09 16:35:41;;;;;;;;;;;6.70;99.90;;;5.56;100.00;94643.59;10412129;28;2051;-76
2023/01/09 16:42:59;;;;;;;;;;;6.70;99.90;;;5.46;100.00;94643.59;10414461;28;2074;-76
2023/01/09 16:46:08;;;;;;;;;;;6.60;99.90;;;5.27;100.00;94662.78;10418227;28;2011;-77
2023/01/09 16:51:11;;;;;;;;;;;6.50;99.90;;;5.19;100.00;94663.34;10413815;28;2077;-75
2023/01/09 16:56:16;;;;;;;;;;;6.30;99.90;;;5.23;100.00;94680.41;10413543;28;2102;-76
2023/01/09 17:01:19;;;;;;;;;;;6.30;99.90;;;5.25;100.00;94680.13;10412550;28;1972;-74
2023/01/09 17:06:22;;;;;;;;;;;6.30;99.90;;;5.25;100.00;94686.25;10413049;28;1981;-74
2023/01/09 17:11:27;;;;;;;;;;;6.30;99.90;;;5.20;100.00;94698.75;10416210;28;2027;-73
2023/01/09 17:16:29;;;;;;;;;;;6.50;99.90;;;5.19;100.00;94705.97;10410620;28;1993;-73
2023/01/09 17:21:32;;;;;;;;;;;6.30;99.90;;;5.15;100.00;94702.22;10412658;28;2079;-73
2023/01/09 17:31:55;;;;;;;;;;;6.20;99.90;;;5.14;100.00;94717.41;10409135;28;2199;-73
2023/01/09 17:36:58;;;;;;;;;;;6.20;99.90;;;5.08;100.00;94749.63;10412507;28;2227;-73
2023/01/09 17:42:01;;;;;;;;;;;6.20;99.90;;;5.04;100.00;94738.72;10438876;28;1805;-74
2023/01/09 17:47:04;;;;;;;;;;;6.20;99.90;;;4.99;100.00;94753.88;10444347;28;1811;-74
2023/01/09 17:52:07;;;;;;;;;;;6.10;99.90;;;4.89;100.00;94755.44;10421582;28;1894;-72
2023/01/09 17:57:10;;;;;;;;;;;6.00;99.90;;;4.75;100.00;94767.66;10409024;28;2191;-75
2023/01/09 18:02:13;;;;;;;;;;;6.00;99.90;;;4.66;100.00;94763.91;10408635;28;2037;-74
2023/01/09 18:07:16;;;;;;;;;;;5.80;99.90;;;4.57;100.00;94770.78;10409308;28;2028;-74
2023/01/09 18:12:18;;;;;;;;;;;5.70;99.90;;;4.52;100.00;94778.78;10416814;28;2072;-75
2023/01/09 18:17:21;;;;;;;;;;;5.70;99.90;;;4.39;100.00;94781.88;10408352;28;2220;-75
2023/01/09 18:22:24;;;;;;;;;;;5.60;99.90;;;4.33;100.00;94792.50;10407478;28;2083;-73
2023/01/09 18:27:27;;;;;;;;;;;5.50;99.90;;;4.18;100.00;94805.72;10409444;28;1976;-75
2023/01/09 18:32:30;;;;;;;;;;;5.40;99.90;;;4.19;100.00;94811.81;10411225;28;2004;-74
2023/01/09 18:37:32;;;;;;;;;;;5.40;99.90;;;4.10;100.00;94813.38;10410192;28;2428;-74
2023/01/09 18:42:38;;;;;;;;;;;5.30;99.90;;;4.09;100.00;94811.78;10410468;28;2124;-73
2023/01/09 18:47:40;;;;;;;;;;;5.30;99.90;;;4.01;100.00;94826.38;10408921;28;2063;-74
2023/01/09 18:52:43;;;;;;;;;;;5.20;99.90;;;4.02;100.00;94831.41;10407255;28;2064;-75
2023/01/09 18:57:46;;;;;;;;;;;5.20;99.90;;;3.96;100.00;94839.63;10407531;28;2041;-73
2023/01/09 19:02:49;;;;;;;;;;;5.10;99.90;;;3.90;100.00;94848.59;10411890;28;2138;-75
2023/01/09 19:07:52;;;;;;;;;;;5.00;99.90;;;3.86;100.00;94855.47;10409074;28;2073;-73
2023/01/09 19:12:55;;;;;;;;;;;5.00;99.90;;;3.87;100.00;94865.06;10417672;28;2114;-73
2023/01/09 19:17:58;;;;;;;;;;;5.00;99.90;;;4.02;100.00;94870.50;10404436;28;1945;-74
2023/01/09 19:23:01;;;;;;;;;;;5.00;99.90;;;4.10;100.00;94879.88;10408477;28;2032;-73
2023/01/09 19:28:04;;;;;;;;;;;5.10;99.90;;;4.13;100.00;94885.47;10405987;28;2363;-74
2023/01/09 19:33:07;;;;;;;;;;;5.10;99.90;;;4.11;100.00;94892.91;10406491;28;2092;-74
2023/01/09 19:38:09;;;;;;;;;;;5.20;99.90;;;4.07;100.00;94897.13;10407615;28;2063;-74
2023/01/09 19:43:24;;;;;;;;;;;5.20;99.90;;;4.05;100.00;94902.69;10411328;28;2058;-74
2023/01/09 19:48:29;;;;;;;;;;;5.10;99.90;;;4.12;100.00;94913.13;10408508;28;2073;-73
2023/01/09 19:53:32;;;;;;;;;;;5.10;99.90;;;4.06;100.00;94924.78;10407846;28;2000;-75
2023/01/09 19:58:35;;;;;;;;;;;5.10;99.90;;;3.98;100.00;94926.03;10409688;28;2037;-77
2023/01/09 20:03:37;;;;;;;;;;;6.10;99.90;;;3.75;100.00;94945.78;10410380;28;1965;-76
2023/01/09 20:08:41;;;;;;;;;;;5.00;99.90;;;3.56;100.00;94947.16;10411223;28;2197;-75
2023/01/09 20:13:44;;;;;;;;;;;4.80;99.90;;;3.45;100.00;94956.88;10424055;28;1991;-74
2023/01/09 20:18:46;;;;;;;;;;;4.70;99.90;;;3.33;100.00;94968.69;10414386;28;1960;-78
2023/01/09 20:23:49;;;;;;;;;;;4.50;99.90;;;3.27;100.00;94962.50;10418133;28;1980;-76
2023/01/09 20:28:52;;;;;;;;;;;4.40;99.90;;;3.30;100.00;94971.81;10413054;28;2049;-76
2023/01/09 20:33:55;;;;;;;;;;;4.40;99.90;;;3.48;100.00;94979.50;10413997;28;2079;-76
2023/01/09 20:38:58;;;;;;;;;;;4.50;99.90;;;3.52;100.00;94988.56;10415642;28;2032;-75
2023/01/09 20:44:01;;;;;;;;;;;4.60;99.90;;;3.60;100.00;94990.78;10416204;28;2325;-73
2023/01/09 20:49:05;;;;;;;;;;;4.00;99.90;;;3.71;100.00;94999.69;10421171;28;2015;-73
2023/01/09 20:54:08;;;;;;;;;;;4.70;99.90;;;3.89;100.00;94986.06;10415256;28;2128;-72
2023/01/09 20:59:10;;;;;;;;;;;4.80;99.90;;;3.73;100.00;95001.03;10414962;28;2147;-75
2023/01/09 21:04:13;;;;;;;;;;;4.90;99.90;;;3.56;100.00;94994.19;10411840;28;2003;-73
2023/01/09 21:09:16;;;;;;;;;;;4.70;99.90;;;3.45;100.00;95003.91;10414050;28;2013;-71
2023/01/09 21:14:19;;;;;;;;;;;4.60;99.90;;;3.37;100.00;95012.28;10418882;28;2080;-74
2023/01/09 21:19:22;;;;;;;;;;;4.50;99.90;;;3.32;100.00;95013.06;10420193;28;2023;-74
2023/01/09 21:24:24;;;;;;;;;;;4.40;99.90;;;3.46;100.00;95022.25;10412286;28;2028;-74
2023/01/09 21:29:27;;;;;;;;;;;4.50;99.90;;;3.51;100.00;95032.16;10412365;28;2032;-75
2023/01/09 21:34:30;;;;;;;;;;;4.60;99.90;;;3.55;100.00;95035.09;10412130;28;2012;-74
2023/01/09 21:39:33;;;;;;;;;;;4.60;99.90;;;3.44;100.00;95050.13;10413824;28;2064;-73
2023/01/09 21:49:56;;;;;;;;;;;4.50;99.90;;;3.29;100.00;95057.88;10410656;28;1987;-74
2023/01/09 21:54:58;;;;;;;;;;;4.40;99.90;;;3.33;100.00;95064.31;10409256;28;2153;-75
2023/01/09 22:00:02;;;;;;;;;;;4.70;99.90;;;3.40;100.00;95060.44;10413634;28;2316;-73
2023/01/09 22:05:04;;;;;;;;;;;4.40;99.90;;;3.28;100.00;95065.06;10410140;28;2022;-74
2023/01/09 22:10:07;;;;;;;;;;;4.40;99.90;;;3.14;100.00;95072.56;10411192;28;2077;-75
2023/01/09 22:15:10;;;;;;;;;;;4.30;99.90;;;3.16;100.00;95082.94;10413007;28;2055;-75
2023/01/09 22:20:13;;;;;;;;;;;4.30;99.90;;;3.28;100.00;95096.94;10406876;28;2240;-79
2023/01/09 22:25:16;;;;;;;;;;;4.30;99.90;;;3.34;100.00;95103.91;10407962;28;1976;-74
2023/01/09 22:30:18;;;;;;;;;;;4.30;99.90;;;3.43;100.00;95107.75;10408500;28;1959;-74
2023/01/09 22:35:21;;;;;;;;;;;4.40;99.90;;;3.43;100.00;95112.25;10407136;28;2064;-75
2023/01/09 22:40:24;;;;;;;;;;;4.50;99.90;;;3.27;100.00;95105.94;10411968;28;2132;-74
2023/01/09 22:45:27;;;;;;;;;;;4.40;99.90;;;3.27;100.00;95113.91;10408206;28;2021;-73
2023/01/09 22:50:30;;;;;;;;;;;4.30;99.90;;;3.31;100.00;95124.84;10408772;28;1996;-73
2023/01/09 22:55:33;;;;;;;;;;;4.30;99.90;;;3.36;100.00;95127.56;10408136;28;2271;-73
2023/01/09 23:00:35;;;;;;;;;;;4.40;99.90;;;3.43;100.00;95117.56;10404744;28;1991;-74
2023/01/09 23:05:38;;;;;;;;;;;4.40;99.90;;;3.48;100.00;95110.47;10406314;28;1996;-72
2023/01/09 23:10:41;;;;;;;;;;;4.50;99.90;;;3.48;100.00;95131.75;10414032;28;2213;-70
2023/01/09 23:15:44;;;;;;;;;;;4.50;99.90;;;3.52;100.00;95129.41;10410048;28;2435;-70
2023/01/09 23:20:46;;;;;;;;;;;4.60;99.90;;;3.64;100.00;95146.06;10406706;28;2012;-70
2023/01/09 23:25:49;;;;;;;;;;;4.60;99.90;;;3.66;100.00;95148.47;10405720;28;2120;-69
2023/01/09 23:30:52;;;;;;;;;;;4.70;99.90;;;3.52;100.00;95154.13;10407614;28;2071;-70
2023/01/09 23:35:55;;;;;;;;;;;4.60;99.90;;;3.42;100.00;95150.50;10406275;28;2108;-70
2023/01/09 23:40:58;;;;;;;;;;;4.50;99.90;;;3.28;100.00;95162.53;10405258;28;1977;-71
2023/01/09 23:46:01;;;;;;;;;;;4.40;99.90;;;3.10;100.00;95164.38;10414578;28;2071;-71
2023/01/09 23:51:05;;;;;;;;;;;4.20;99.90;;;3.11;100.00;95179.25;10419472;28;2015;-69